sensor_id;sensor_type;location;lat;lon;timestamp;P1;durP1;ratioP1;P2;durP2;ratioP2
4353;SDS011;11018;51.258;6.806;2023-03-19T00:01:05;11.98;;;5.60;;
4353;SDS011;11018;51.258;6.806;2023-03-19T00:03:32;11.40;;;6.30;;
4353;SDS011;11018;51.258;6.806;2023-03-19T00:05:58;11.48;;;6.00;;
4353;SDS011;11018;51.258;6.806;2023-03-19T00:08:24;9.20;;;6.10;;
4353;SDS011;11018;51.258;6.806;2023-03-19T00:10:49;11.82;;;5.88;;
4353;SDS011;11018;51.258;6.806;2023-03-19T00:13:15;11.18;;;5.88;;
4353;SDS011;11018;51.258;6.806;2023-03-19T00:15:41;9.80;;;6.20;;
4353;SDS011;11018;51.258;6.806;2023-03-19T00:18:07;10.43;;;6.10;;
4353;SDS011;11018;51.258;6.806;2023-03-19T00:20:33;11.25;;;5.70;;
4353;SDS011;11018;51.258;6.806;2023-03-19T00:22:58;9.90;;;6.32;;
4353;SDS011;11018;51.258;6.806;2023-03-19T00:25:24;11.90;;;5.93;;
4353;SDS011;11018;51.258;6.806;2023-03-19T00:27:50;8.20;;;5.45;;
4353;SDS011;11018;51.258;6.806;2023-03-19T00:30:17;11.98;;;6.00;;
4353;SDS011;11018;51.258;6.806;2023-03-19T00:32:42;9.90;;;6.07;;
4353;SDS011;11018;51.258;6.806;2023-03-19T00:35:08;11.00;;;6.60;;
4353;SDS011;11018;51.258;6.806;2023-03-19T00:37:34;10.75;;;6.40;;
4353;SDS011;11018;51.258;6.806;2023-03-19T00:40:01;13.02;;;7.22;;
4353;SDS011;11018;51.258;6.806;2023-03-19T00:42:28;12.10;;;6.77;;
4353;SDS011;11018;51.258;6.806;2023-03-19T00:44:54;13.00;;;6.60;;
4353;SDS011;11018;51.258;6.806;2023-03-19T00:47:20;19.13;;;6.80;;
4353;SDS011;11018;51.258;6.806;2023-03-19T00:49:46;16.95;;;6.82;;
4353;SDS011;11018;51.258;6.806;2023-03-19T00:52:12;11.48;;;6.40;;
4353;SDS011;11018;51.258;6.806;2023-03-19T00:54:38;13.18;;;6.80;;
4353;SDS011;11018;51.258;6.806;2023-03-19T00:57:04;17.08;;;6.40;;
4353;SDS011;11018;51.258;6.806;2023-03-19T00:59:29;12.55;;;6.78;;
4353;SDS011;11018;51.258;6.806;2023-03-19T01:01:55;14.07;;;7.10;;
4353;SDS011;11018;51.258;6.806;2023-03-19T01:04:20;13.20;;;6.97;;
4353;SDS011;11018;51.258;6.806;2023-03-19T01:06:47;11.23;;;6.50;;
4353;SDS011;11018;51.258;6.806;2023-03-19T01:09:12;15.60;;;7.40;;
4353;SDS011;11018;51.258;6.806;2023-03-19T01:11:38;13.68;;;7.63;;
4353;SDS011;11018;51.258;6.806;2023-03-19T01:14:04;15.40;;;7.80;;
4353;SDS011;11018;51.258;6.806;2023-03-19T01:16:30;17.60;;;8.00;;
4353;SDS011;11018;51.258;6.806;2023-03-19T01:18:56;11.73;;;7.17;;
4353;SDS011;11018;51.258;6.806;2023-03-19T01:21:22;14.57;;;7.60;;
4353;SDS011;11018;51.258;6.806;2023-03-19T01:23:48;11.40;;;7.07;;
4353;SDS011;11018;51.258;6.806;2023-03-19T01:26:15;15.05;;;8.20;;
4353;SDS011;11018;51.258;6.806;2023-03-19T01:28:42;12.00;;;6.57;;
4353;SDS011;11018;51.258;6.806;2023-03-19T01:31:07;12.80;;;7.22;;
4353;SDS011;11018;51.258;6.806;2023-03-19T01:33:33;15.00;;;7.50;;
4353;SDS011;11018;51.258;6.806;2023-03-19T01:35:59;16.33;;;7.43;;
4353;SDS011;11018;51.258;6.806;2023-03-19T01:38:29;15.93;;;7.13;;
4353;SDS011;11018;51.258;6.806;2023-03-19T01:40:56;11.65;;;6.55;;
4353;SDS011;11018;51.258;6.806;2023-03-19T01:43:24;8.80;;;5.93;;
4353;SDS011;11018;51.258;6.806;2023-03-19T01:45:53;11.40;;;6.00;;
4353;SDS011;11018;51.258;6.806;2023-03-19T01:51:09;9.52;;;6.20;;
4353;SDS011;11018;51.258;6.806;2023-03-19T01:53:38;11.25;;;6.40;;
4353;SDS011;11018;51.258;6.806;2023-03-19T01:56:11;11.45;;;6.68;;
4353;SDS011;11018;51.258;6.806;2023-03-19T01:58:39;12.85;;;5.85;;
4353;SDS011;11018;51.258;6.806;2023-03-19T02:01:06;9.82;;;6.15;;
4353;SDS011;11018;51.258;6.806;2023-03-19T02:03:32;13.80;;;6.77;;
4353;SDS011;11018;51.258;6.806;2023-03-19T02:05:58;12.57;;;5.90;;
4353;SDS011;11018;51.258;6.806;2023-03-19T02:08:25;12.10;;;6.20;;
4353;SDS011;11018;51.258;6.806;2023-03-19T02:10:52;13.63;;;5.70;;
4353;SDS011;11018;51.258;6.806;2023-03-19T02:13:20;9.90;;;5.68;;
4353;SDS011;11018;51.258;6.806;2023-03-19T02:15:46;8.73;;;6.38;;
4353;SDS011;11018;51.258;6.806;2023-03-19T02:18:13;11.20;;;6.70;;
4353;SDS011;11018;51.258;6.806;2023-03-19T02:23:32;14.10;;;6.40;;
4353;SDS011;11018;51.258;6.806;2023-03-19T02:26:08;11.50;;;6.20;;
4353;SDS011;11018;51.258;6.806;2023-03-19T02:28:43;13.13;;;6.38;;
4353;SDS011;11018;51.258;6.806;2023-03-19T02:31:10;11.68;;;6.50;;
4353;SDS011;11018;51.258;6.806;2023-03-19T02:33:37;13.45;;;6.40;;
4353;SDS011;11018;51.258;6.806;2023-03-19T02:36:04;11.15;;;6.18;;
4353;SDS011;11018;51.258;6.806;2023-03-19T02:38:33;9.93;;;6.50;;
4353;SDS011;11018;51.258;6.806;2023-03-19T02:41:01;10.82;;;6.75;;
4353;SDS011;11018;51.258;6.806;2023-03-19T02:43:29;12.00;;;6.60;;
4353;SDS011;11018;51.258;6.806;2023-03-19T02:45:56;12.20;;;6.20;;
4353;SDS011;11018;51.258;6.806;2023-03-19T02:48:22;11.18;;;6.68;;
4353;SDS011;11018;51.258;6.806;2023-03-19T02:50:48;17.40;;;7.47;;
4353;SDS011;11018;51.258;6.806;2023-03-19T02:53:14;16.02;;;6.82;;
4353;SDS011;11018;51.258;6.806;2023-03-19T02:55:40;13.30;;;6.35;;
4353;SDS011;11018;51.258;6.806;2023-03-19T02:58:06;11.25;;;6.15;;
4353;SDS011;11018;51.258;6.806;2023-03-19T03:00:32;15.10;;;6.47;;
4353;SDS011;11018;51.258;6.806;2023-03-19T03:02:58;12.13;;;6.57;;
4353;SDS011;11018;51.258;6.806;2023-03-19T03:05:24;16.17;;;6.60;;
4353;SDS011;11018;51.258;6.806;2023-03-19T03:07:50;14.50;;;6.40;;
4353;SDS011;11018;51.258;6.806;2023-03-19T03:10:15;10.80;;;6.37;;
4353;SDS011;11018;51.258;6.806;2023-03-19T03:12:42;10.27;;;6.65;;
4353;SDS011;11018;51.258;6.806;2023-03-19T03:15:07;12.80;;;6.57;;
4353;SDS011;11018;51.258;6.806;2023-03-19T03:17:37;11.75;;;6.70;;
4353;SDS011;11018;51.258;6.806;2023-03-19T03:20:05;16.20;;;6.70;;
4353;SDS011;11018;51.258;6.806;2023-03-19T03:22:31;9.48;;;6.18;;
4353;SDS011;11018;51.258;6.806;2023-03-19T03:24:57;11.60;;;6.20;;
4353;SDS011;11018;51.258;6.806;2023-03-19T03:27:23;13.90;;;6.55;;
4353;SDS011;11018;51.258;6.806;2023-03-19T03:29:48;12.68;;;6.60;;
4353;SDS011;11018;51.258;6.806;2023-03-19T03:32:14;12.75;;;6.70;;
4353;SDS011;11018;51.258;6.806;2023-03-19T03:34:40;14.35;;;6.25;;
4353;SDS011;11018;51.258;6.806;2023-03-19T03:37:06;13.00;;;6.70;;
4353;SDS011;11018;51.258;6.806;2023-03-19T03:39:31;13.02;;;6.38;;
4353;SDS011;11018;51.258;6.806;2023-03-19T03:41:57;11.57;;;6.10;;
4353;SDS011;11018;51.258;6.806;2023-03-19T03:44:22;16.17;;;7.17;;
4353;SDS011;11018;51.258;6.806;2023-03-19T03:46:48;12.20;;;6.67;;
4353;SDS011;11018;51.258;6.806;2023-03-19T03:49:13;15.97;;;6.70;;
4353;SDS011;11018;51.258;6.806;2023-03-19T03:51:39;12.80;;;6.90;;
4353;SDS011;11018;51.258;6.806;2023-03-19T03:54:05;16.67;;;6.93;;
4353;SDS011;11018;51.258;6.806;2023-03-19T03:56:31;10.57;;;6.90;;
4353;SDS011;11018;51.258;6.806;2023-03-19T03:58:57;9.57;;;6.47;;
4353;SDS011;11018;51.258;6.806;2023-03-19T04:01:23;15.40;;;6.70;;
4353;SDS011;11018;51.258;6.806;2023-03-19T04:03:48;13.45;;;6.35;;
4353;SDS011;11018;51.258;6.806;2023-03-19T04:06:14;14.48;;;6.97;;
4353;SDS011;11018;51.258;6.806;2023-03-19T04:08:42;11.80;;;5.90;;
4353;SDS011;11018;51.258;6.806;2023-03-19T04:11:08;10.10;;;6.10;;
4353;SDS011;11018;51.258;6.806;2023-03-19T04:13:34;12.32;;;6.28;;
4353;SDS011;11018;51.258;6.806;2023-03-19T04:16:06;10.20;;;5.95;;
4353;SDS011;11018;51.258;6.806;2023-03-19T04:18:33;15.77;;;5.60;;
4353;SDS011;11018;51.258;6.806;2023-03-19T04:20:59;11.98;;;5.72;;
4353;SDS011;11018;51.258;6.806;2023-03-19T04:23:25;9.32;;;6.32;;
4353;SDS011;11018;51.258;6.806;2023-03-19T04:25:51;10.80;;;6.05;;
4353;SDS011;11018;51.258;6.806;2023-03-19T04:28:17;10.95;;;5.57;;
4353;SDS011;11018;51.258;6.806;2023-03-19T04:30:43;13.70;;;6.78;;
4353;SDS011;11018;51.258;6.806;2023-03-19T04:33:08;9.93;;;6.20;;
4353;SDS011;11018;51.258;6.806;2023-03-19T04:35:35;17.73;;;6.50;;
4353;SDS011;11018;51.258;6.806;2023-03-19T04:38:02;12.93;;;6.77;;
4353;SDS011;11018;51.258;6.806;2023-03-19T04:40:28;13.45;;;5.90;;
4353;SDS011;11018;51.258;6.806;2023-03-19T04:42:53;12.43;;;5.90;;
4353;SDS011;11018;51.258;6.806;2023-03-19T04:45:19;12.75;;;5.88;;
4353;SDS011;11018;51.258;6.806;2023-03-19T04:47:45;10.15;;;6.20;;
4353;SDS011;11018;51.258;6.806;2023-03-19T04:50:10;14.80;;;6.47;;
4353;SDS011;11018;51.258;6.806;2023-03-19T04:52:37;11.23;;;5.57;;
4353;SDS011;11018;51.258;6.806;2023-03-19T04:55:04;10.70;;;6.20;;
4353;SDS011;11018;51.258;6.806;2023-03-19T04:57:30;9.60;;;5.70;;
4353;SDS011;11018;51.258;6.806;2023-03-19T04:59:56;10.50;;;5.80;;
4353;SDS011;11018;51.258;6.806;2023-03-19T05:02:22;10.13;;;6.00;;
4353;SDS011;11018;51.258;6.806;2023-03-19T05:04:47;12.77;;;6.72;;
4353;SDS011;11018;51.258;6.806;2023-03-19T05:07:13;12.45;;;5.85;;
4353;SDS011;11018;51.258;6.806;2023-03-19T05:09:38;10.02;;;6.00;;
4353;SDS011;11018;51.258;6.806;2023-03-19T05:12:04;14.68;;;5.82;;
4353;SDS011;11018;51.258;6.806;2023-03-19T05:14:30;11.48;;;6.13;;
4353;SDS011;11018;51.258;6.806;2023-03-19T05:16:56;13.77;;;6.07;;
4353;SDS011;11018;51.258;6.806;2023-03-19T05:19:22;11.30;;;5.80;;
4353;SDS011;11018;51.258;6.806;2023-03-19T05:21:49;10.80;;;5.40;;
4353;SDS011;11018;51.258;6.806;2023-03-19T05:24:15;8.57;;;5.20;;
4353;SDS011;11018;51.258;6.806;2023-03-19T05:26:40;13.83;;;4.80;;
4353;SDS011;11018;51.258;6.806;2023-03-19T05:29:06;9.87;;;5.00;;
4353;SDS011;11018;51.258;6.806;2023-03-19T05:31:34;8.48;;;4.40;;
4353;SDS011;11018;51.258;6.806;2023-03-19T05:34:01;7.10;;;4.10;;
4353;SDS011;11018;51.258;6.806;2023-03-19T05:36:27;10.00;;;4.28;;
4353;SDS011;11018;51.258;6.806;2023-03-19T05:38:52;8.65;;;4.50;;
4353;SDS011;11018;51.258;6.806;2023-03-19T05:41:18;8.27;;;4.03;;
4353;SDS011;11018;51.258;6.806;2023-03-19T05:43:44;6.70;;;3.85;;
4353;SDS011;11018;51.258;6.806;2023-03-19T05:46:09;5.65;;;3.50;;
4353;SDS011;11018;51.258;6.806;2023-03-19T05:48:35;5.45;;;3.63;;
4353;SDS011;11018;51.258;6.806;2023-03-19T05:51:01;9.48;;;4.00;;
4353;SDS011;11018;51.258;6.806;2023-03-19T05:53:27;7.10;;;3.87;;
4353;SDS011;11018;51.258;6.806;2023-03-19T05:55:53;6.25;;;3.60;;
4353;SDS011;11018;51.258;6.806;2023-03-19T05:58:18;5.87;;;3.60;;
4353;SDS011;11018;51.258;6.806;2023-03-19T06:00:44;3.40;;;3.10;;
4353;SDS011;11018;51.258;6.806;2023-03-19T06:03:10;5.20;;;3.00;;
4353;SDS011;11018;51.258;6.806;2023-03-19T06:05:36;7.45;;;3.60;;
4353;SDS011;11018;51.258;6.806;2023-03-19T06:08:02;4.35;;;3.33;;
4353;SDS011;11018;51.258;6.806;2023-03-19T06:10:28;5.40;;;3.40;;
4353;SDS011;11018;51.258;6.806;2023-03-19T06:12:53;5.93;;;3.53;;
4353;SDS011;11018;51.258;6.806;2023-03-19T06:15:19;5.40;;;3.67;;
4353;SDS011;11018;51.258;6.806;2023-03-19T06:17:45;7.45;;;3.75;;
4353;SDS011;11018;51.258;6.806;2023-03-19T06:20:10;5.47;;;3.60;;
4353;SDS011;11018;51.258;6.806;2023-03-19T06:22:37;6.63;;;3.80;;
4353;SDS011;11018;51.258;6.806;2023-03-19T06:25:02;5.30;;;3.37;;
4353;SDS011;11018;51.258;6.806;2023-03-19T06:27:28;6.95;;;3.67;;
4353;SDS011;11018;51.258;6.806;2023-03-19T06:29:53;7.10;;;4.13;;
4353;SDS011;11018;51.258;6.806;2023-03-19T06:32:19;9.23;;;4.03;;
4353;SDS011;11018;51.258;6.806;2023-03-19T06:34:45;6.15;;;3.90;;
4353;SDS011;11018;51.258;6.806;2023-03-19T06:37:11;4.72;;;3.60;;
4353;SDS011;11018;51.258;6.806;2023-03-19T06:39:36;7.10;;;3.70;;
4353;SDS011;11018;51.258;6.806;2023-03-19T06:42:02;6.40;;;3.90;;
4353;SDS011;11018;51.258;6.806;2023-03-19T06:44:27;5.25;;;3.97;;
4353;SDS011;11018;51.258;6.806;2023-03-19T06:46:53;9.25;;;3.55;;
4353;SDS011;11018;51.258;6.806;2023-03-19T06:49:19;7.07;;;3.80;;
4353;SDS011;11018;51.258;6.806;2023-03-19T06:51:45;7.17;;;4.10;;
4353;SDS011;11018;51.258;6.806;2023-03-19T06:54:11;7.77;;;4.23;;
4353;SDS011;11018;51.258;6.806;2023-03-19T06:56:36;6.60;;;4.20;;
4353;SDS011;11018;51.258;6.806;2023-03-19T06:59:02;8.82;;;4.10;;
4353;SDS011;11018;51.258;6.806;2023-03-19T07:01:27;7.72;;;4.60;;
4353;SDS011;11018;51.258;6.806;2023-03-19T07:03:53;6.90;;;4.37;;
4353;SDS011;11018;51.258;6.806;2023-03-19T07:06:19;6.47;;;4.30;;
4353;SDS011;11018;51.258;6.806;2023-03-19T07:08:45;6.50;;;3.95;;
4353;SDS011;11018;51.258;6.806;2023-03-19T07:11:11;10.63;;;4.60;;
4353;SDS011;11018;51.258;6.806;2023-03-19T07:13:37;6.00;;;4.10;;
4353;SDS011;11018;51.258;6.806;2023-03-19T07:16:02;8.43;;;4.20;;
4353;SDS011;11018;51.258;6.806;2023-03-19T07:18:28;8.90;;;4.20;;
4353;SDS011;11018;51.258;6.806;2023-03-19T07:20:54;7.90;;;4.13;;
4353;SDS011;11018;51.258;6.806;2023-03-19T07:23:20;9.90;;;4.30;;
4353;SDS011;11018;51.258;6.806;2023-03-19T07:25:45;5.70;;;4.13;;
4353;SDS011;11018;51.258;6.806;2023-03-19T07:28:11;6.53;;;4.00;;
4353;SDS011;11018;51.258;6.806;2023-03-19T07:30:37;7.45;;;4.05;;
4353;SDS011;11018;51.258;6.806;2023-03-19T07:33:03;10.07;;;4.03;;
4353;SDS011;11018;51.258;6.806;2023-03-19T07:35:31;6.22;;;4.00;;
4353;SDS011;11018;51.258;6.806;2023-03-19T07:37:57;7.63;;;4.38;;
4353;SDS011;11018;51.258;6.806;2023-03-19T07:40:23;9.95;;;3.60;;
4353;SDS011;11018;51.258;6.806;2023-03-19T07:42:49;7.22;;;4.40;;
4353;SDS011;11018;51.258;6.806;2023-03-19T07:45:15;5.88;;;3.78;;
4353;SDS011;11018;51.258;6.806;2023-03-19T07:47:40;6.38;;;4.43;;
4353;SDS011;11018;51.258;6.806;2023-03-19T07:50:06;6.80;;;4.40;;
4353;SDS011;11018;51.258;6.806;2023-03-19T07:52:32;9.00;;;4.63;;
4353;SDS011;11018;51.258;6.806;2023-03-19T07:54:58;8.80;;;3.90;;
4353;SDS011;11018;51.258;6.806;2023-03-19T07:57:23;9.25;;;4.60;;
4353;SDS011;11018;51.258;6.806;2023-03-19T07:59:50;6.13;;;3.97;;
4353;SDS011;11018;51.258;6.806;2023-03-19T08:02:16;5.88;;;3.90;;
4353;SDS011;11018;51.258;6.806;2023-03-19T08:04:42;4.93;;;3.63;;
4353;SDS011;11018;51.258;6.806;2023-03-19T08:07:08;4.50;;;3.50;;
4353;SDS011;11018;51.258;6.806;2023-03-19T08:09:37;5.78;;;3.50;;
4353;SDS011;11018;51.258;6.806;2023-03-19T08:12:04;5.18;;;3.90;;
4353;SDS011;11018;51.258;6.806;2023-03-19T08:14:31;6.93;;;4.07;;
4353;SDS011;11018;51.258;6.806;2023-03-19T08:16:57;5.22;;;3.90;;
4353;SDS011;11018;51.258;6.806;2023-03-19T08:19:23;6.18;;;3.55;;
4353;SDS011;11018;51.258;6.806;2023-03-19T08:21:49;6.47;;;4.05;;
4353;SDS011;11018;51.258;6.806;2023-03-19T08:24:15;5.72;;;3.50;;
4353;SDS011;11018;51.258;6.806;2023-03-19T08:26:41;4.43;;;3.50;;
4353;SDS011;11018;51.258;6.806;2023-03-19T08:29:07;6.53;;;3.80;;
4353;SDS011;11018;51.258;6.806;2023-03-19T08:31:32;5.47;;;3.88;;
4353;SDS011;11018;51.258;6.806;2023-03-19T08:33:58;5.15;;;3.63;;
4353;SDS011;11018;51.258;6.806;2023-03-19T08:36:30;4.60;;;3.65;;
4353;SDS011;11018;51.258;6.806;2023-03-19T08:38:55;6.00;;;3.70;;
4353;SDS011;11018;51.258;6.806;2023-03-19T08:41:22;4.68;;;3.70;;
4353;SDS011;11018;51.258;6.806;2023-03-19T08:43:48;5.50;;;3.50;;
4353;SDS011;11018;51.258;6.806;2023-03-19T08:46:13;5.63;;;3.60;;
4353;SDS011;11018;51.258;6.806;2023-03-19T08:48:40;8.52;;;3.35;;
4353;SDS011;11018;51.258;6.806;2023-03-19T08:51:06;5.32;;;3.47;;
4353;SDS011;11018;51.258;6.806;2023-03-19T08:53:33;6.90;;;3.78;;
4353;SDS011;11018;51.258;6.806;2023-03-19T08:56:00;8.43;;;3.83;;
4353;SDS011;11018;51.258;6.806;2023-03-19T08:58:28;7.60;;;4.10;;
4353;SDS011;11018;51.258;6.806;2023-03-19T09:00:59;7.10;;;4.10;;
4353;SDS011;11018;51.258;6.806;2023-03-19T09:03:29;8.77;;;4.20;;
4353;SDS011;11018;51.258;6.806;2023-03-19T09:05:59;7.25;;;4.45;;
4353;SDS011;11018;51.258;6.806;2023-03-19T09:08:25;6.17;;;4.00;;
4353;SDS011;11018;51.258;6.806;2023-03-19T09:10:52;7.13;;;3.97;;
4353;SDS011;11018;51.258;6.806;2023-03-19T09:13:17;5.20;;;4.00;;
4353;SDS011;11018;51.258;6.806;2023-03-19T09:15:43;8.00;;;4.60;;
4353;SDS011;11018;51.258;6.806;2023-03-19T09:18:09;6.07;;;4.25;;
4353;SDS011;11018;51.258;6.806;2023-03-19T09:20:37;6.60;;;4.30;;
4353;SDS011;11018;51.258;6.806;2023-03-19T09:23:03;9.70;;;4.70;;
4353;SDS011;11018;51.258;6.806;2023-03-19T09:25:28;4.90;;;4.37;;
4353;SDS011;11018;51.258;6.806;2023-03-19T09:27:54;6.75;;;4.72;;
4353;SDS011;11018;51.258;6.806;2023-03-19T09:30:20;6.85;;;4.28;;
4353;SDS011;11018;51.258;6.806;2023-03-19T09:32:45;7.10;;;3.80;;
4353;SDS011;11018;51.258;6.806;2023-03-19T09:35:11;9.93;;;5.50;;
4353;SDS011;11018;51.258;6.806;2023-03-19T09:37:37;8.00;;;5.03;;
4353;SDS011;11018;51.258;6.806;2023-03-19T09:40:02;10.38;;;4.00;;
4353;SDS011;11018;51.258;6.806;2023-03-19T09:45:13;6.60;;;3.65;;
4353;SDS011;11018;51.258;6.806;2023-03-19T09:47:40;4.63;;;4.00;;
4353;SDS011;11018;51.258;6.806;2023-03-19T09:50:12;5.97;;;3.80;;
4353;SDS011;11018;51.258;6.806;2023-03-19T09:52:40;5.50;;;4.10;;
4353;SDS011;11018;51.258;6.806;2023-03-19T09:57:47;6.10;;;4.15;;
4353;SDS011;11018;51.258;6.806;2023-03-19T10:00:18;6.55;;;4.00;;
4353;SDS011;11018;51.258;6.806;2023-03-19T10:02:53;11.57;;;5.90;;
4353;SDS011;11018;51.258;6.806;2023-03-19T10:05:43;6.30;;;4.55;;
4353;SDS011;11018;51.258;6.806;2023-03-19T10:11:23;4.90;;;3.90;;
4353;SDS011;11018;51.258;6.806;2023-03-19T10:16:54;5.30;;;4.10;;
4353;SDS011;11018;51.258;6.806;2023-03-19T10:19:23;4.80;;;3.70;;
4353;SDS011;11018;51.258;6.806;2023-03-19T10:22:07;6.20;;;4.30;;
4353;SDS011;11018;51.258;6.806;2023-03-19T10:24:40;5.65;;;4.18;;
4353;SDS011;11018;51.258;6.806;2023-03-19T10:27:09;8.27;;;4.07;;
4353;SDS011;11018;51.258;6.806;2023-03-19T10:29:38;4.55;;;4.00;;
4353;SDS011;11018;51.258;6.806;2023-03-19T10:34:46;8.18;;;4.63;;
4353;SDS011;11018;51.258;6.806;2023-03-19T10:39:44;6.05;;;3.90;;
4353;SDS011;11018;51.258;6.806;2023-03-19T10:44:52;6.60;;;4.60;;
4353;SDS011;11018;51.258;6.806;2023-03-19T10:47:31;6.35;;;4.60;;
4353;SDS011;11018;51.258;6.806;2023-03-19T10:50:02;5.15;;;4.65;;
4353;SDS011;11018;51.258;6.806;2023-03-19T10:52:29;5.83;;;4.90;;
4353;SDS011;11018;51.258;6.806;2023-03-19T10:55:14;5.88;;;4.82;;
4353;SDS011;11018;51.258;6.806;2023-03-19T10:57:42;6.85;;;5.28;;
4353;SDS011;11018;51.258;6.806;2023-03-19T11:00:21;7.13;;;6.10;;
4353;SDS011;11018;51.258;6.806;2023-03-19T11:02:49;9.70;;;6.28;;
4353;SDS011;11018;51.258;6.806;2023-03-19T11:05:21;6.57;;;5.97;;
4353;SDS011;11018;51.258;6.806;2023-03-19T11:07:54;8.30;;;5.63;;
4353;SDS011;11018;51.258;6.806;2023-03-19T11:10:24;9.98;;;5.40;;
4353;SDS011;11018;51.258;6.806;2023-03-19T11:12:52;7.40;;;6.30;;
4353;SDS011;11018;51.258;6.806;2023-03-19T11:15:30;7.68;;;6.20;;
4353;SDS011;11018;51.258;6.806;2023-03-19T11:18:06;6.68;;;5.50;;
4353;SDS011;11018;51.258;6.806;2023-03-19T11:20:40;6.38;;;5.55;;
4353;SDS011;11018;51.258;6.806;2023-03-19T11:23:13;7.85;;;6.03;;
4353;SDS011;11018;51.258;6.806;2023-03-19T11:25:50;7.30;;;6.15;;
4353;SDS011;11018;51.258;6.806;2023-03-19T11:28:18;7.43;;;6.07;;
4353;SDS011;11018;51.258;6.806;2023-03-19T11:47:29;7.32;;;6.00;;
4353;SDS011;11018;51.258;6.806;2023-03-19T11:50:02;11.33;;;7.10;;
4353;SDS011;11018;51.258;6.806;2023-03-19T11:53:00;7.50;;;6.70;;
4353;SDS011;11018;51.258;6.806;2023-03-19T11:55:38;8.98;;;7.20;;
4353;SDS011;11018;51.258;6.806;2023-03-19T12:01:11;8.73;;;6.97;;
4353;SDS011;11018;51.258;6.806;2023-03-19T12:04:16;8.13;;;6.10;;
4353;SDS011;11018;51.258;6.806;2023-03-19T12:29:57;7.13;;;5.13;;
4353;SDS011;11018;51.258;6.806;2023-03-19T12:35:35;6.28;;;4.68;;
4353;SDS011;11018;51.258;6.806;2023-03-19T12:38:09;6.78;;;5.40;;
4353;SDS011;11018;51.258;6.806;2023-03-19T12:43:17;7.15;;;5.53;;
4353;SDS011;11018;51.258;6.806;2023-03-19T12:45:49;8.10;;;6.45;;
4353;SDS011;11018;51.258;6.806;2023-03-19T12:48:26;9.93;;;6.72;;
4353;SDS011;11018;51.258;6.806;2023-03-19T12:50:56;7.10;;;6.10;;
4353;SDS011;11018;51.258;6.806;2023-03-19T12:56:33;7.47;;;5.97;;
4353;SDS011;11018;51.258;6.806;2023-03-19T12:59:01;9.13;;;6.50;;
4353;SDS011;11018;51.258;6.806;2023-03-19T13:01:49;6.63;;;5.90;;
4353;SDS011;11018;51.258;6.806;2023-03-19T13:04:22;6.60;;;5.63;;
4353;SDS011;11018;51.258;6.806;2023-03-19T13:07:00;7.65;;;6.45;;
4353;SDS011;11018;51.258;6.806;2023-03-19T13:09:37;7.30;;;5.82;;
4353;SDS011;11018;51.258;6.806;2023-03-19T13:12:13;9.13;;;7.03;;
4353;SDS011;11018;51.258;6.806;2023-03-19T13:14:49;11.60;;;7.20;;
4353;SDS011;11018;51.258;6.806;2023-03-19T13:19:51;10.30;;;7.18;;
4353;SDS011;11018;51.258;6.806;2023-03-19T13:22:20;9.27;;;6.68;;
4353;SDS011;11018;51.258;6.806;2023-03-19T13:24:58;9.40;;;6.85;;
4353;SDS011;11018;51.258;6.806;2023-03-19T13:32:33;8.05;;;6.55;;
4353;SDS011;11018;51.258;6.806;2023-03-19T13:38:06;9.23;;;7.20;;
4353;SDS011;11018;51.258;6.806;2023-03-19T13:40:54;10.32;;;6.95;;
4353;SDS011;11018;51.258;6.806;2023-03-19T13:50:54;9.57;;;6.70;;
4353;SDS011;11018;51.258;6.806;2023-03-19T13:55:59;6.63;;;5.93;;
4353;SDS011;11018;51.258;6.806;2023-03-19T13:58:29;7.95;;;6.07;;
4353;SDS011;11018;51.258;6.806;2023-03-19T14:06:31;6.68;;;5.90;;
4353;SDS011;11018;51.258;6.806;2023-03-19T14:09:04;8.70;;;6.00;;
4353;SDS011;11018;51.258;6.806;2023-03-19T14:11:34;7.13;;;6.40;;
4353;SDS011;11018;51.258;6.806;2023-03-19T14:14:03;8.98;;;6.30;;
4353;SDS011;11018;51.258;6.806;2023-03-19T14:16:34;11.23;;;6.67;;
4353;SDS011;11018;51.258;6.806;2023-03-19T14:19:02;6.85;;;5.60;;
4353;SDS011;11018;51.258;6.806;2023-03-19T14:21:39;9.20;;;6.40;;
4353;SDS011;11018;51.258;6.806;2023-03-19T14:26:58;7.88;;;5.60;;
4353;SDS011;11018;51.258;6.806;2023-03-19T14:29:27;7.40;;;5.60;;
4353;SDS011;11018;51.258;6.806;2023-03-19T14:31:54;7.65;;;5.20;;
4353;SDS011;11018;51.258;6.806;2023-03-19T14:34:26;6.38;;;5.20;;
4353;SDS011;11018;51.258;6.806;2023-03-19T14:39:53;7.40;;;6.30;;
4353;SDS011;11018;51.258;6.806;2023-03-19T14:45:34;7.47;;;6.00;;
4353;SDS011;11018;51.258;6.806;2023-03-19T14:48:24;9.33;;;6.00;;
4353;SDS011;11018;51.258;6.806;2023-03-19T14:50:59;9.35;;;6.25;;
4353;SDS011;11018;51.258;6.806;2023-03-19T14:53:36;9.02;;;6.00;;
4353;SDS011;11018;51.258;6.806;2023-03-19T14:56:30;7.85;;;5.82;;
4353;SDS011;11018;51.258;6.806;2023-03-19T14:58:58;8.60;;;5.90;;
4353;SDS011;11018;51.258;6.806;2023-03-19T15:01:28;10.00;;;5.65;;
4353;SDS011;11018;51.258;6.806;2023-03-19T15:03:58;6.40;;;5.10;;
4353;SDS011;11018;51.258;6.806;2023-03-19T15:06:29;6.38;;;5.55;;
4353;SDS011;11018;51.258;6.806;2023-03-19T15:12:02;6.68;;;4.70;;
4353;SDS011;11018;51.258;6.806;2023-03-19T15:17:43;6.60;;;4.60;;
4353;SDS011;11018;51.258;6.806;2023-03-19T15:20:14;7.07;;;4.40;;
4353;SDS011;11018;51.258;6.806;2023-03-19T15:22:55;7.72;;;5.60;;
4353;SDS011;11018;51.258;6.806;2023-03-19T15:25:24;7.97;;;4.50;;
4353;SDS011;11018;51.258;6.806;2023-03-19T15:28:09;6.90;;;5.10;;
4353;SDS011;11018;51.258;6.806;2023-03-19T15:30:38;6.70;;;4.50;;
4353;SDS011;11018;51.258;6.806;2023-03-19T15:33:17;8.70;;;4.65;;
4353;SDS011;11018;51.258;6.806;2023-03-19T15:35:50;5.60;;;4.40;;
4353;SDS011;11018;51.258;6.806;2023-03-19T15:38:18;7.47;;;4.40;;
4353;SDS011;11018;51.258;6.806;2023-03-19T15:40:45;7.40;;;4.40;;
4353;SDS011;11018;51.258;6.806;2023-03-19T15:43:11;5.93;;;4.47;;
4353;SDS011;11018;51.258;6.806;2023-03-19T15:45:37;6.15;;;4.30;;
4353;SDS011;11018;51.258;6.806;2023-03-19T15:48:07;8.02;;;4.80;;
4353;SDS011;11018;51.258;6.806;2023-03-19T15:50:42;6.00;;;4.18;;
4353;SDS011;11018;51.258;6.806;2023-03-19T15:53:12;11.43;;;5.55;;
4353;SDS011;11018;51.258;6.806;2023-03-19T15:55:42;6.30;;;4.70;;
4353;SDS011;11018;51.258;6.806;2023-03-19T15:58:09;8.80;;;6.60;;
4353;SDS011;11018;51.258;6.806;2023-03-19T16:00:39;7.13;;;5.70;;
4353;SDS011;11018;51.258;6.806;2023-03-19T16:03:06;7.65;;;5.88;;
4353;SDS011;11018;51.258;6.806;2023-03-19T16:05:35;13.13;;;6.80;;
4353;SDS011;11018;51.258;6.806;2023-03-19T16:08:09;7.80;;;5.90;;
4353;SDS011;11018;51.258;6.806;2023-03-19T16:10:42;8.52;;;5.93;;
4353;SDS011;11018;51.258;6.806;2023-03-19T16:13:27;11.65;;;6.90;;
4353;SDS011;11018;51.258;6.806;2023-03-19T16:16:40;10.68;;;6.90;;
4353;SDS011;11018;51.258;6.806;2023-03-19T16:18:47;7.88;;;6.18;;
4353;SDS011;11018;51.258;6.806;2023-03-19T16:21:29;12.10;;;6.72;;
4353;SDS011;11018;51.258;6.806;2023-03-19T16:26:48;8.93;;;6.85;;
4353;SDS011;11018;51.258;6.806;2023-03-19T16:29:18;10.40;;;7.50;;
4353;SDS011;11018;51.258;6.806;2023-03-19T16:31:48;12.75;;;8.60;;
4353;SDS011;11018;51.258;6.806;2023-03-19T16:37:26;10.90;;;8.35;;
4353;SDS011;11018;51.258;6.806;2023-03-19T16:39:56;12.55;;;8.65;;
4353;SDS011;11018;51.258;6.806;2023-03-19T16:42:45;12.48;;;8.07;;
4353;SDS011;11018;51.258;6.806;2023-03-19T16:47:38;13.30;;;7.90;;
4353;SDS011;11018;51.258;6.806;2023-03-19T16:50:08;14.48;;;7.80;;
4353;SDS011;11018;51.258;6.806;2023-03-19T16:52:34;15.00;;;8.60;;
4353;SDS011;11018;51.258;6.806;2023-03-19T16:55:03;12.53;;;7.50;;
4353;SDS011;11018;51.258;6.806;2023-03-19T16:57:34;11.07;;;7.70;;
4353;SDS011;11018;51.258;6.806;2023-03-19T16:59:59;14.43;;;8.60;;
4353;SDS011;11018;51.258;6.806;2023-03-19T17:02:25;9.10;;;7.27;;
4353;SDS011;11018;51.258;6.806;2023-03-19T17:04:51;14.45;;;7.90;;
4353;SDS011;11018;51.258;6.806;2023-03-19T17:07:17;10.17;;;7.57;;
4353;SDS011;11018;51.258;6.806;2023-03-19T17:09:42;12.53;;;7.67;;